Enschede, Netherlands
Current Conditions -  °F | °C
As of 10:50 AM on Saturday 29 Nov 2014 (Local Time) from EDDG Reporting Station
Broken Clouds Broken Clouds  
Wind Chill: 30°   Ceiling: 1000
Heat Index: 37°   Visibility: 6mi
Dew Point: 34°   Wind: 10mph
Humidity: 87%   Direction: 100°E
Pressure: 30.03"   Gusts: NA
Location:  52.22°N, 6.9°E
Report Text: EDDG 290950Z 10009KT 9000 BKN010 03/01 Q1017 NOSIG
Loading
Personal Weather Stations






























Interactive Weather Map New forecast layout! Learn more

10-Day Weather Forecast

Advertisements
Track Severe Weather on mobile